sensor_id;sensor_type;location;lat;lon;timestamp;pressure;altitude;pressure_sealevel;temperature;humidity
51067;BME280;37112;45.892;-123.962;2022-08-03T00:00:37;101685.04;;;19.52;61.73
51067;BME280;37112;45.892;-123.962;2022-08-03T00:02:50;101685.48;;;19.47;61.30
51067;BME280;37112;45.892;-123.962;2022-08-03T00:05:03;101683.64;;;19.42;61.53
51067;BME280;37112;45.892;-123.962;2022-08-03T00:07:18;101686.99;;;19.32;61.83
51067;BME280;37112;45.892;-123.962;2022-08-03T00:09:31;101679.52;;;19.36;61.89
51067;BME280;37112;45.892;-123.962;2022-08-03T00:11:44;101679.11;;;19.42;62.69
51067;BME280;37112;45.892;-123.962;2022-08-03T00:13:59;101680.30;;;19.65;62.49
51067;BME280;37112;45.892;-123.962;2022-08-03T00:16:12;101670.05;;;19.71;61.49
51067;BME280;37112;45.892;-123.962;2022-08-03T00:18:26;101667.40;;;19.74;61.74
51067;BME280;37112;45.892;-123.962;2022-08-03T00:20:39;101662.89;;;19.92;61.90
51067;BME280;37112;45.892;-123.962;2022-08-03T00:22:52;101660.91;;;20.01;61.04
51067;BME280;37112;45.892;-123.962;2022-08-03T00:25:07;101663.94;;;20.00;60.78
51067;BME280;37112;45.892;-123.962;2022-08-03T00:27:20;101664.25;;;20.00;60.85
51067;BME280;37112;45.892;-123.962;2022-08-03T00:29:33;101667.48;;;19.97;60.54
51067;BME280;37112;45.892;-123.962;2022-08-03T00:32:06;101660.33;;;19.90;60.58
51067;BME280;37112;45.892;-123.962;2022-08-03T00:34:20;101660.27;;;19.83;60.99
51067;BME280;37112;45.892;-123.962;2022-08-03T00:36:53;101662.16;;;19.76;60.90
51067;BME280;37112;45.892;-123.962;2022-08-03T00:39:06;101656.49;;;19.71;61.30
51067;BME280;37112;45.892;-123.962;2022-08-03T00:41:19;101664.64;;;19.68;61.49
51067;BME280;37112;45.892;-123.962;2022-08-03T00:43:32;101662.71;;;19.66;61.74
51067;BME280;37112;45.892;-123.962;2022-08-03T00:45:45;101664.51;;;19.64;61.49
51067;BME280;37112;45.892;-123.962;2022-08-03T00:48:00;101667.46;;;19.62;61.91
51067;BME280;37112;45.892;-123.962;2022-08-03T00:50:13;101660.61;;;19.67;62.27
51067;BME280;37112;45.892;-123.962;2022-08-03T00:52:26;101653.92;;;19.75;61.86
51067;BME280;37112;45.892;-123.962;2022-08-03T00:54:40;101653.68;;;19.72;61.66
51067;BME280;37112;45.892;-123.962;2022-08-03T00:56:53;101655.09;;;19.63;61.62
51067;BME280;37112;45.892;-123.962;2022-08-03T00:59:08;101650.85;;;19.56;61.73
51067;BME280;37112;45.892;-123.962;2022-08-03T01:01:22;101652.29;;;19.48;61.67
51067;BME280;37112;45.892;-123.962;2022-08-03T01:03:41;101649.32;;;19.37;61.97
51067;BME280;37112;45.892;-123.962;2022-08-03T01:05:57;101645.04;;;19.33;62.28
51067;BME280;37112;45.892;-123.962;2022-08-03T01:08:17;101644.39;;;19.40;62.70
51067;BME280;37112;45.892;-123.962;2022-08-03T01:10:38;101646.77;;;19.47;62.29
51067;BME280;37112;45.892;-123.962;2022-08-03T01:13:00;101643.10;;;19.56;62.44
51067;BME280;37112;45.892;-123.962;2022-08-03T01:15:42;101640.66;;;19.57;62.21
51067;BME280;37112;45.892;-123.962;2022-08-03T01:17:58;101641.27;;;19.66;62.36
51067;BME280;37112;45.892;-123.962;2022-08-03T01:20:15;101634.92;;;19.68;61.56
51067;BME280;37112;45.892;-123.962;2022-08-03T01:22:50;101637.61;;;19.73;62.27
51067;BME280;37112;45.892;-123.962;2022-08-03T01:25:17;101636.04;;;19.84;61.64
51067;BME280;37112;45.892;-123.962;2022-08-03T01:27:47;101631.97;;;19.71;61.21
51067;BME280;37112;45.892;-123.962;2022-08-03T01:30:06;101625.09;;;19.54;61.55
51067;BME280;37112;45.892;-123.962;2022-08-03T01:32:22;101623.86;;;19.43;62.17
51067;BME280;37112;45.892;-123.962;2022-08-03T01:35:03;101619.73;;;19.43;62.65
51067;BME280;37112;45.892;-123.962;2022-08-03T01:37:20;101621.04;;;19.49;62.53
51067;BME280;37112;45.892;-123.962;2022-08-03T01:39:34;101620.16;;;19.53;62.14
51067;BME280;37112;45.892;-123.962;2022-08-03T01:41:52;101622.06;;;19.49;62.32
51067;BME280;37112;45.892;-123.962;2022-08-03T01:44:10;101625.42;;;19.44;62.52
51067;BME280;37112;45.892;-123.962;2022-08-03T01:46:40;101619.64;;;19.46;63.12
51067;BME280;37112;45.892;-123.962;2022-08-03T01:48:57;101624.06;;;19.53;62.97
51067;BME280;37112;45.892;-123.962;2022-08-03T01:51:18;101616.60;;;19.56;63.06
51067;BME280;37112;45.892;-123.962;2022-08-03T01:53:53;101618.36;;;19.64;63.41
51067;BME280;37112;45.892;-123.962;2022-08-03T01:56:07;101617.69;;;19.70;62.87
51067;BME280;37112;45.892;-123.962;2022-08-03T01:58:21;101619.74;;;19.61;62.23
51067;BME280;37112;45.892;-123.962;2022-08-03T02:00:36;101618.73;;;19.45;62.51
51067;BME280;37112;45.892;-123.962;2022-08-03T02:02:51;101623.41;;;19.43;62.80
51067;BME280;37112;45.892;-123.962;2022-08-03T02:05:09;101622.79;;;19.33;62.85
51067;BME280;37112;45.892;-123.962;2022-08-03T02:07:24;101625.02;;;19.23;63.15
51067;BME280;37112;45.892;-123.962;2022-08-03T02:09:39;101624.05;;;19.21;63.50
51067;BME280;37112;45.892;-123.962;2022-08-03T02:11:53;101621.70;;;19.17;63.74
51067;BME280;37112;45.892;-123.962;2022-08-03T02:14:07;101622.19;;;19.18;64.01
51067;BME280;37112;45.892;-123.962;2022-08-03T02:16:22;101622.13;;;19.23;63.89
51067;BME280;37112;45.892;-123.962;2022-08-03T02:18:36;101619.52;;;19.20;63.89
51067;BME280;37112;45.892;-123.962;2022-08-03T02:20:52;101622.10;;;19.19;63.48
51067;BME280;37112;45.892;-123.962;2022-08-03T02:23:06;101620.93;;;19.12;63.81
51067;BME280;37112;45.892;-123.962;2022-08-03T02:25:19;101617.95;;;19.03;63.49
51067;BME280;37112;45.892;-123.962;2022-08-03T02:27:33;101618.91;;;18.96;63.85
51067;BME280;37112;45.892;-123.962;2022-08-03T02:30:04;101620.80;;;18.91;63.97
51067;BME280;37112;45.892;-123.962;2022-08-03T02:32:19;101618.54;;;18.87;64.24
51067;BME280;37112;45.892;-123.962;2022-08-03T02:34:35;101618.95;;;18.82;64.29
51067;BME280;37112;45.892;-123.962;2022-08-03T02:36:50;101614.75;;;18.79;64.33
51067;BME280;37112;45.892;-123.962;2022-08-03T02:39:05;101612.86;;;18.75;64.66
51067;BME280;37112;45.892;-123.962;2022-08-03T02:41:26;101608.14;;;18.76;64.97
51067;BME280;37112;45.892;-123.962;2022-08-03T02:43:44;101610.52;;;18.81;65.01
51067;BME280;37112;45.892;-123.962;2022-08-03T02:46:16;101613.42;;;18.81;64.75
51067;BME280;37112;45.892;-123.962;2022-08-03T02:48:34;101607.25;;;18.80;64.79
51067;BME280;37112;45.892;-123.962;2022-08-03T02:50:49;101604.87;;;18.80;64.93
51067;BME280;37112;45.892;-123.962;2022-08-03T02:53:04;101607.84;;;18.77;64.75
51067;BME280;37112;45.892;-123.962;2022-08-03T02:55:21;101609.89;;;18.74;64.97
51067;BME280;37112;45.892;-123.962;2022-08-03T02:57:36;101607.84;;;18.73;65.12
51067;BME280;37112;45.892;-123.962;2022-08-03T02:59:49;101609.06;;;18.73;65.11
51067;BME280;37112;45.892;-123.962;2022-08-03T03:02:03;101611.84;;;18.71;65.05
51067;BME280;37112;45.892;-123.962;2022-08-03T03:04:17;101606.76;;;18.65;64.99
51067;BME280;37112;45.892;-123.962;2022-08-03T03:06:38;101606.11;;;18.57;65.08
51067;BME280;37112;45.892;-123.962;2022-08-03T03:08:55;101608.77;;;18.52;65.24
51067;BME280;37112;45.892;-123.962;2022-08-03T03:11:10;101602.34;;;18.47;65.42
51067;BME280;37112;45.892;-123.962;2022-08-03T03:13:23;101607.36;;;18.43;65.45
51067;BME280;37112;45.892;-123.962;2022-08-03T03:15:37;101608.11;;;18.39;65.62
51067;BME280;37112;45.892;-123.962;2022-08-03T03:17:51;101604.06;;;18.31;65.54
51067;BME280;37112;45.892;-123.962;2022-08-03T03:20:06;101605.95;;;18.26;65.92
51067;BME280;37112;45.892;-123.962;2022-08-03T03:22:20;101602.81;;;18.23;65.93
51067;BME280;37112;45.892;-123.962;2022-08-03T03:24:34;101603.85;;;18.20;66.07
51067;BME280;37112;45.892;-123.962;2022-08-03T03:26:48;101608.83;;;18.14;66.11
51067;BME280;37112;45.892;-123.962;2022-08-03T03:29:02;101612.30;;;18.06;66.20
51067;BME280;37112;45.892;-123.962;2022-08-03T03:31:16;101615.43;;;17.99;66.30
51067;BME280;37112;45.892;-123.962;2022-08-03T03:33:29;101612.48;;;17.92;66.46
51067;BME280;37112;45.892;-123.962;2022-08-03T03:35:43;101610.95;;;17.85;66.44
51067;BME280;37112;45.892;-123.962;2022-08-03T03:37:57;101608.77;;;17.79;66.78
51067;BME280;37112;45.892;-123.962;2022-08-03T03:40:11;101608.16;;;17.73;66.89
51067;BME280;37112;45.892;-123.962;2022-08-03T03:42:26;101612.49;;;17.70;67.09
51067;BME280;37112;45.892;-123.962;2022-08-03T03:44:40;101611.09;;;17.65;67.14
51067;BME280;37112;45.892;-123.962;2022-08-03T03:46:53;101613.52;;;17.60;67.12
51067;BME280;37112;45.892;-123.962;2022-08-03T03:49:06;101615.02;;;17.55;67.38
51067;BME280;37112;45.892;-123.962;2022-08-03T03:51:20;101613.33;;;17.51;67.49
51067;BME280;37112;45.892;-123.962;2022-08-03T03:53:33;101610.48;;;17.46;67.64
51067;BME280;37112;45.892;-123.962;2022-08-03T03:55:46;101617.95;;;17.45;67.74
51067;BME280;37112;45.892;-123.962;2022-08-03T03:58:11;101619.34;;;17.44;67.88
51067;BME280;37112;45.892;-123.962;2022-08-03T04:00:25;101622.36;;;17.42;67.87
51067;BME280;37112;45.892;-123.962;2022-08-03T04:02:38;101622.60;;;17.41;67.99
51067;BME280;37112;45.892;-123.962;2022-08-03T04:04:51;101625.16;;;17.38;67.95
51067;BME280;37112;45.892;-123.962;2022-08-03T04:07:20;101626.55;;;17.35;67.95
51067;BME280;37112;45.892;-123.962;2022-08-03T04:09:52;101627.69;;;17.30;67.92
51067;BME280;37112;45.892;-123.962;2022-08-03T04:12:24;101631.38;;;17.22;68.05
51067;BME280;37112;45.892;-123.962;2022-08-03T04:14:39;101632.92;;;17.16;68.09
51067;BME280;37112;45.892;-123.962;2022-08-03T04:16:55;101633.21;;;17.10;68.21
51067;BME280;37112;45.892;-123.962;2022-08-03T04:19:10;101636.47;;;17.03;68.31
51067;BME280;37112;45.892;-123.962;2022-08-03T04:21:32;101641.91;;;17.00;68.55
51067;BME280;37112;45.892;-123.962;2022-08-03T04:23:48;101643.52;;;16.98;68.57
51067;BME280;37112;45.892;-123.962;2022-08-03T04:26:03;101647.16;;;16.95;68.71
51067;BME280;37112;45.892;-123.962;2022-08-03T04:28:19;101652.64;;;16.91;68.75
51067;BME280;37112;45.892;-123.962;2022-08-03T04:30:40;101654.15;;;16.86;68.75
51067;BME280;37112;45.892;-123.962;2022-08-03T04:32:58;101657.53;;;16.82;68.94
51067;BME280;37112;45.892;-123.962;2022-08-03T04:35:13;101653.88;;;16.78;68.94
51067;BME280;37112;45.892;-123.962;2022-08-03T04:37:32;101652.59;;;16.74;69.01
51067;BME280;37112;45.892;-123.962;2022-08-03T04:39:50;101654.48;;;16.71;69.08
51067;BME280;37112;45.892;-123.962;2022-08-03T04:42:08;101655.92;;;16.68;69.29
51067;BME280;37112;45.892;-123.962;2022-08-03T04:44:25;101656.84;;;16.65;69.31
51067;BME280;37112;45.892;-123.962;2022-08-03T04:46:40;101652.55;;;16.63;69.44
51067;BME280;37112;45.892;-123.962;2022-08-03T04:49:01;101650.81;;;16.62;69.56
51067;BME280;37112;45.892;-123.962;2022-08-03T04:51:15;101655.93;;;16.61;69.60
51067;BME280;37112;45.892;-123.962;2022-08-03T04:53:29;101653.77;;;16.59;69.56
51067;BME280;37112;45.892;-123.962;2022-08-03T04:55:42;101650.21;;;16.56;69.60
51067;BME280;37112;45.892;-123.962;2022-08-03T04:57:55;101650.92;;;16.52;69.65
51067;BME280;37112;45.892;-123.962;2022-08-03T05:00:10;101649.45;;;16.47;69.75
51067;BME280;37112;45.892;-123.962;2022-08-03T05:02:24;101647.64;;;16.43;69.76
51067;BME280;37112;45.892;-123.962;2022-08-03T05:04:37;101645.86;;;16.40;69.79
51067;BME280;37112;45.892;-123.962;2022-08-03T05:06:55;101639.27;;;16.37;69.79
51067;BME280;37112;45.892;-123.962;2022-08-03T05:09:20;101642.73;;;16.35;69.85
51067;BME280;37112;45.892;-123.962;2022-08-03T05:11:54;101643.41;;;16.33;69.97
51067;BME280;37112;45.892;-123.962;2022-08-03T05:14:07;101645.36;;;16.31;70.12
51067;BME280;37112;45.892;-123.962;2022-08-03T05:16:20;101643.39;;;16.29;70.15
51067;BME280;37112;45.892;-123.962;2022-08-03T05:18:35;101645.23;;;16.25;70.06
51067;BME280;37112;45.892;-123.962;2022-08-03T05:20:48;101642.08;;;16.22;70.15
51067;BME280;37112;45.892;-123.962;2022-08-03T05:23:01;101642.70;;;16.21;70.35
51067;BME280;37112;45.892;-123.962;2022-08-03T05:25:14;101641.10;;;16.19;70.36
51067;BME280;37112;45.892;-123.962;2022-08-03T05:27:32;101641.89;;;16.15;70.27
51067;BME280;37112;45.892;-123.962;2022-08-03T05:29:46;101639.54;;;16.11;70.40
51067;BME280;37112;45.892;-123.962;2022-08-03T05:31:59;101643.64;;;16.09;70.41
51067;BME280;37112;45.892;-123.962;2022-08-03T05:34:16;101641.09;;;16.05;70.48
51067;BME280;37112;45.892;-123.962;2022-08-03T05:36:29;101645.73;;;16.02;70.60
51067;BME280;37112;45.892;-123.962;2022-08-03T05:38:43;101644.33;;;16.00;70.69
51067;BME280;37112;45.892;-123.962;2022-08-03T05:40:56;101642.35;;;15.98;70.80
51067;BME280;37112;45.892;-123.962;2022-08-03T05:43:29;101643.02;;;15.96;70.92
51067;BME280;37112;45.892;-123.962;2022-08-03T05:45:44;101643.92;;;15.96;71.08
51067;BME280;37112;45.892;-123.962;2022-08-03T05:48:18;101641.44;;;15.93;71.03
51067;BME280;37112;45.892;-123.962;2022-08-03T05:50:31;101643.48;;;15.90;70.98
51067;BME280;37112;45.892;-123.962;2022-08-03T05:52:53;101637.16;;;15.85;71.00
51067;BME280;37112;45.892;-123.962;2022-08-03T05:55:08;101637.38;;;15.83;71.12
51067;BME280;37112;45.892;-123.962;2022-08-03T05:57:21;101630.54;;;15.81;71.21
51067;BME280;37112;45.892;-123.962;2022-08-03T05:59:35;101635.95;;;15.78;71.17
51067;BME280;37112;45.892;-123.962;2022-08-03T06:02:07;101635.58;;;15.73;71.36
51067;BME280;37112;45.892;-123.962;2022-08-03T06:04:20;101634.17;;;15.70;71.44
51067;BME280;37112;45.892;-123.962;2022-08-03T06:06:33;101633.54;;;15.67;71.47
51067;BME280;37112;45.892;-123.962;2022-08-03T06:08:46;101632.11;;;15.62;71.38
51067;BME280;37112;45.892;-123.962;2022-08-03T06:11:00;101630.45;;;15.57;71.60
51067;BME280;37112;45.892;-123.962;2022-08-03T06:13:13;101632.78;;;15.52;71.57
51067;BME280;37112;45.892;-123.962;2022-08-03T06:15:26;101633.71;;;15.50;71.81
51067;BME280;37112;45.892;-123.962;2022-08-03T06:17:48;101637.38;;;15.49;71.99
51067;BME280;37112;45.892;-123.962;2022-08-03T06:20:01;101634.47;;;15.45;71.93
51067;BME280;37112;45.892;-123.962;2022-08-03T06:22:14;101632.09;;;15.40;72.11
51067;BME280;37112;45.892;-123.962;2022-08-03T06:24:29;101632.16;;;15.37;72.08
51067;BME280;37112;45.892;-123.962;2022-08-03T06:26:42;101635.66;;;15.33;72.14
51067;BME280;37112;45.892;-123.962;2022-08-03T06:28:55;101635.41;;;15.29;72.19
51067;BME280;37112;45.892;-123.962;2022-08-03T06:31:12;101632.77;;;15.24;72.30
51067;BME280;37112;45.892;-123.962;2022-08-03T06:33:25;101633.89;;;15.20;72.46
51067;BME280;37112;45.892;-123.962;2022-08-03T06:35:58;101639.35;;;15.17;72.52
51067;BME280;37112;45.892;-123.962;2022-08-03T06:38:11;101635.94;;;15.15;72.65
51067;BME280;37112;45.892;-123.962;2022-08-03T06:40:25;101635.33;;;15.13;72.83
51067;BME280;37112;45.892;-123.962;2022-08-03T06:42:40;101636.27;;;15.10;72.77
51067;BME280;37112;45.892;-123.962;2022-08-03T06:44:54;101640.86;;;15.06;72.87
51067;BME280;37112;45.892;-123.962;2022-08-03T06:47:07;101637.89;;;15.05;73.14
51067;BME280;37112;45.892;-123.962;2022-08-03T06:49:21;101639.04;;;15.04;73.27
51067;BME280;37112;45.892;-123.962;2022-08-03T06:51:34;101637.65;;;15.03;73.50
51067;BME280;37112;45.892;-123.962;2022-08-03T06:54:07;101635.96;;;15.01;73.53
51067;BME280;37112;45.892;-123.962;2022-08-03T06:56:21;101635.80;;;14.99;73.67
51067;BME280;37112;45.892;-123.962;2022-08-03T06:58:34;101636.69;;;14.96;73.73
51067;BME280;37112;45.892;-123.962;2022-08-03T07:00:47;101637.51;;;14.95;73.80
51067;BME280;37112;45.892;-123.962;2022-08-03T07:03:01;101636.94;;;14.93;73.95
51067;BME280;37112;45.892;-123.962;2022-08-03T07:05:14;101632.73;;;14.92;74.06
51067;BME280;37112;45.892;-123.962;2022-08-03T07:07:27;101631.91;;;14.91;74.13
51067;BME280;37112;45.892;-123.962;2022-08-03T07:09:40;101634.06;;;14.89;74.18
51067;BME280;37112;45.892;-123.962;2022-08-03T07:12:07;101632.58;;;14.87;74.35
51067;BME280;37112;45.892;-123.962;2022-08-03T07:14:21;101632.20;;;14.84;74.35
51067;BME280;37112;45.892;-123.962;2022-08-03T07:16:34;101633.27;;;14.82;74.41
51067;BME280;37112;45.892;-123.962;2022-08-03T07:18:47;101635.57;;;14.80;74.58
51067;BME280;37112;45.892;-123.962;2022-08-03T07:21:00;101636.15;;;14.79;74.71
51067;BME280;37112;45.892;-123.962;2022-08-03T07:23:13;101634.04;;;14.79;74.80
51067;BME280;37112;45.892;-123.962;2022-08-03T07:25:27;101638.89;;;14.78;74.96
51067;BME280;37112;45.892;-123.962;2022-08-03T07:27:45;101637.64;;;14.78;75.06
51067;BME280;37112;45.892;-123.962;2022-08-03T07:30:00;101638.55;;;14.77;75.14
51067;BME280;37112;45.892;-123.962;2022-08-03T07:32:13;101638.36;;;14.78;75.33
51067;BME280;37112;45.892;-123.962;2022-08-03T07:34:27;101640.45;;;14.79;75.40
51067;BME280;37112;45.892;-123.962;2022-08-03T07:36:40;101640.70;;;14.81;75.60
51067;BME280;37112;45.892;-123.962;2022-08-03T07:38:53;101633.52;;;14.81;75.60
51067;BME280;37112;45.892;-123.962;2022-08-03T07:41:07;101634.34;;;14.82;75.69
51067;BME280;37112;45.892;-123.962;2022-08-03T07:43:20;101638.06;;;14.82;75.75
51067;BME280;37112;45.892;-123.962;2022-08-03T07:45:33;101642.39;;;14.84;75.97
51067;BME280;37112;45.892;-123.962;2022-08-03T07:47:46;101641.35;;;14.87;76.09
51067;BME280;37112;45.892;-123.962;2022-08-03T07:50:02;101633.80;;;14.87;76.08
51067;BME280;37112;45.892;-123.962;2022-08-03T07:52:17;101638.63;;;14.89;76.16
51067;BME280;37112;45.892;-123.962;2022-08-03T07:54:46;101642.98;;;14.91;76.26
51067;BME280;37112;45.892;-123.962;2022-08-03T07:56:59;101642.93;;;14.92;76.36
51067;BME280;37112;45.892;-123.962;2022-08-03T07:59:12;101643.00;;;14.93;76.42
51067;BME280;37112;45.892;-123.962;2022-08-03T08:01:25;101643.73;;;14.93;76.38
51067;BME280;37112;45.892;-123.962;2022-08-03T08:03:38;101643.58;;;14.93;76.48
51067;BME280;37112;45.892;-123.962;2022-08-03T08:06:02;101642.08;;;14.93;76.58
51067;BME280;37112;45.892;-123.962;2022-08-03T08:08:16;101640.43;;;14.94;76.58
51067;BME280;37112;45.892;-123.962;2022-08-03T08:10:29;101636.09;;;14.95;76.80
51067;BME280;37112;45.892;-123.962;2022-08-03T08:12:43;101631.79;;;14.97;76.92
51067;BME280;37112;45.892;-123.962;2022-08-03T08:14:56;101634.72;;;14.99;76.92
51067;BME280;37112;45.892;-123.962;2022-08-03T08:17:09;101630.61;;;15.01;77.14
51067;BME280;37112;45.892;-123.962;2022-08-03T08:19:22;101627.58;;;15.04;77.11
51067;BME280;37112;45.892;-123.962;2022-08-03T08:21:38;101626.48;;;15.06;77.24
51067;BME280;37112;45.892;-123.962;2022-08-03T08:24:10;101620.69;;;15.08;77.19
51067;BME280;37112;45.892;-123.962;2022-08-03T08:26:28;101619.77;;;15.08;77.15
51067;BME280;37112;45.892;-123.962;2022-08-03T08:28:41;101618.41;;;15.09;77.30
51067;BME280;37112;45.892;-123.962;2022-08-03T08:30:54;101620.05;;;15.12;77.55
51067;BME280;37112;45.892;-123.962;2022-08-03T08:33:07;101619.35;;;15.14;77.60
51067;BME280;37112;45.892;-123.962;2022-08-03T08:35:32;101616.59;;;15.15;77.57
51067;BME280;37112;45.892;-123.962;2022-08-03T08:37:45;101617.02;;;15.16;77.70
51067;BME280;37112;45.892;-123.962;2022-08-03T08:40:00;101616.13;;;15.19;77.70
51067;BME280;37112;45.892;-123.962;2022-08-03T08:42:13;101614.59;;;15.20;77.62
51067;BME280;37112;45.892;-123.962;2022-08-03T08:44:27;101610.89;;;15.22;77.68
51067;BME280;37112;45.892;-123.962;2022-08-03T08:46:40;101612.77;;;15.25;77.79
51067;BME280;37112;45.892;-123.962;2022-08-03T08:48:55;101615.73;;;15.29;77.82
51067;BME280;37112;45.892;-123.962;2022-08-03T08:51:13;101610.44;;;15.30;77.72
51067;BME280;37112;45.892;-123.962;2022-08-03T08:53:30;101606.27;;;15.31;77.73
51067;BME280;37112;45.892;-123.962;2022-08-03T08:55:47;101605.45;;;15.32;77.75
51067;BME280;37112;45.892;-123.962;2022-08-03T08:58:10;101609.55;;;15.33;77.75
51067;BME280;37112;45.892;-123.962;2022-08-03T09:00:29;101604.88;;;15.33;77.79
51067;BME280;37112;45.892;-123.962;2022-08-03T09:02:44;101608.20;;;15.34;77.74
51067;BME280;37112;45.892;-123.962;2022-08-03T09:04:57;101607.84;;;15.35;77.72
51067;BME280;37112;45.892;-123.962;2022-08-03T09:07:15;101603.50;;;15.35;77.80
51067;BME280;37112;45.892;-123.962;2022-08-03T09:09:29;101599.34;;;15.36;77.74
51067;BME280;37112;45.892;-123.962;2022-08-03T09:12:02;101600.66;;;15.35;77.74
51067;BME280;37112;45.892;-123.962;2022-08-03T09:14:35;101605.27;;;15.38;77.81
51067;BME280;37112;45.892;-123.962;2022-08-03T09:17:08;101604.11;;;15.39;77.83
51067;BME280;37112;45.892;-123.962;2022-08-03T09:19:25;101605.54;;;15.41;77.92
51067;BME280;37112;45.892;-123.962;2022-08-03T09:21:39;101600.54;;;15.44;77.90
51067;BME280;37112;45.892;-123.962;2022-08-03T09:23:53;101599.89;;;15.47;78.01
51067;BME280;37112;45.892;-123.962;2022-08-03T09:26:12;101600.27;;;15.50;77.88
51067;BME280;37112;45.892;-123.962;2022-08-03T09:28:35;101600.64;;;15.50;77.80
51067;BME280;37112;45.892;-123.962;2022-08-03T09:31:08;101603.34;;;15.49;77.66
51067;BME280;37112;45.892;-123.962;2022-08-03T09:33:21;101600.44;;;15.50;77.66
51067;BME280;37112;45.892;-123.962;2022-08-03T09:35:45;101598.16;;;15.51;77.60
51067;BME280;37112;45.892;-123.962;2022-08-03T09:38:14;101601.31;;;15.52;77.66
51067;BME280;37112;45.892;-123.962;2022-08-03T09:40:38;101604.81;;;15.53;77.60
51067;BME280;37112;45.892;-123.962;2022-08-03T09:42:59;101603.35;;;15.54;77.55
51067;BME280;37112;45.892;-123.962;2022-08-03T09:45:27;101597.88;;;15.52;77.41
51067;BME280;37112;45.892;-123.962;2022-08-03T09:47:40;101598.75;;;15.51;77.28
51067;BME280;37112;45.892;-123.962;2022-08-03T09:50:00;101597.05;;;15.50;77.26
51067;BME280;37112;45.892;-123.962;2022-08-03T09:52:18;101598.14;;;15.49;77.29
51067;BME280;37112;45.892;-123.962;2022-08-03T09:54:54;101596.30;;;15.50;77.39
51067;BME280;37112;45.892;-123.962;2022-08-03T09:57:07;101596.70;;;15.49;77.20
51067;BME280;37112;45.892;-123.962;2022-08-03T09:59:27;101597.75;;;15.47;77.04
51067;BME280;37112;45.892;-123.962;2022-08-03T10:01:41;101599.17;;;15.45;76.96
51067;BME280;37112;45.892;-123.962;2022-08-03T10:03:59;101594.08;;;15.44;77.08
51067;BME280;37112;45.892;-123.962;2022-08-03T10:06:20;101595.68;;;15.44;76.98
51067;BME280;37112;45.892;-123.962;2022-08-03T10:08:37;101596.56;;;15.44;77.02
51067;BME280;37112;45.892;-123.962;2022-08-03T10:10:51;101593.63;;;15.45;76.99
51067;BME280;37112;45.892;-123.962;2022-08-03T10:13:07;101590.36;;;15.45;77.00
51067;BME280;37112;45.892;-123.962;2022-08-03T10:15:20;101592.62;;;15.46;77.07
51067;BME280;37112;45.892;-123.962;2022-08-03T10:17:53;101592.05;;;15.49;77.20
51067;BME280;37112;45.892;-123.962;2022-08-03T10:20:09;101587.55;;;15.52;77.19
51067;BME280;37112;45.892;-123.962;2022-08-03T10:22:25;101586.89;;;15.53;77.15
51067;BME280;37112;45.892;-123.962;2022-08-03T10:24:45;101590.47;;;15.56;77.17
51067;BME280;37112;45.892;-123.962;2022-08-03T10:27:02;101587.17;;;15.57;77.20
51067;BME280;37112;45.892;-123.962;2022-08-03T10:29:20;101587.73;;;15.59;77.17
51067;BME280;37112;45.892;-123.962;2022-08-03T10:31:37;101588.93;;;15.60;77.04
51067;BME280;37112;45.892;-123.962;2022-08-03T10:34:08;101594.23;;;15.61;77.08
51067;BME280;37112;45.892;-123.962;2022-08-03T10:36:24;101593.09;;;15.62;77.02
51067;BME280;37112;45.892;-123.962;2022-08-03T10:38:46;101596.20;;;15.61;77.04
51067;BME280;37112;45.892;-123.962;2022-08-03T10:41:02;101598.88;;;15.61;76.95
51067;BME280;37112;45.892;-123.962;2022-08-03T10:43:20;101600.67;;;15.61;76.84
51067;BME280;37112;45.892;-123.962;2022-08-03T10:45:35;101602.15;;;15.60;76.68
51067;BME280;37112;45.892;-123.962;2022-08-03T10:47:52;101598.20;;;15.60;76.70
51067;BME280;37112;45.892;-123.962;2022-08-03T10:50:06;101597.23;;;15.62;76.70
51067;BME280;37112;45.892;-123.962;2022-08-03T10:52:20;101595.75;;;15.62;76.76
51067;BME280;37112;45.892;-123.962;2022-08-03T10:54:46;101595.05;;;15.65;76.89
51067;BME280;37112;45.892;-123.962;2022-08-03T11:00:03;101591.64;;;15.69;76.99
51067;BME280;37112;45.892;-123.962;2022-08-03T11:02:17;101589.96;;;15.70;76.87
51067;BME280;37112;45.892;-123.962;2022-08-03T11:04:30;101589.10;;;15.70;76.75
51067;BME280;37112;45.892;-123.962;2022-08-03T11:06:43;101580.92;;;15.69;76.63
51067;BME280;37112;45.892;-123.962;2022-08-03T11:09:16;101584.61;;;15.70;76.67
51067;BME280;37112;45.892;-123.962;2022-08-03T11:11:29;101584.41;;;15.70;76.69
51067;BME280;37112;45.892;-123.962;2022-08-03T11:13:59;101582.86;;;15.72;76.59
51067;BME280;37112;45.892;-123.962;2022-08-03T11:16:22;101583.34;;;15.70;76.48
51067;BME280;37112;45.892;-123.962;2022-08-03T11:18:35;101580.59;;;15.71;76.56
51067;BME280;37112;45.892;-123.962;2022-08-03T11:20:50;101577.30;;;15.72;76.62
51067;BME280;37112;45.892;-123.962;2022-08-03T11:23:03;101576.31;;;15.73;76.55
51067;BME280;37112;45.892;-123.962;2022-08-03T11:25:17;101574.46;;;15.74;76.54
51067;BME280;37112;45.892;-123.962;2022-08-03T11:27:50;101569.58;;;15.75;76.41
51067;BME280;37112;45.892;-123.962;2022-08-03T11:30:27;101572.77;;;15.73;76.28
51067;BME280;37112;45.892;-123.962;2022-08-03T11:32:59;101573.63;;;15.73;76.21